Time;durP1;ratioP1;P1;durP2;ratioP2;P2;SDS_P1;SDS_P2;PMS_P1;PMS_P2;Temp;Humidity;BMP_temperature;BMP_pressure;BME280_temperature;BME280_humidity;BME280_pressure;Samples;Min_cycle;Max_cycle;Signal;HPM_P1;HPM_P2
2021/11/20 00:00:39;;;;;;;17.02;11.50;;;;;;;5.07;100.00;93665.13;5031368;28;20470;-79
2021/11/20 00:03:07;;;;;;;18.35;10.70;;;;;;;5.26;100.00;93680.16;5031040;28;20460;-79
2021/11/20 00:05:38;;;;;;;17.50;11.90;;;;;;;5.33;100.00;93688.75;5031763;28;20056;-79
2021/11/20 00:08:06;;;;;;;19.83;12.35;;;;;;;5.33;100.00;93673.47;5031416;28;20045;-79
2021/11/20 00:10:37;;;;;;;17.77;11.45;;;;;;;5.31;100.00;93673.63;5031065;28;20093;-79
2021/11/20 00:13:07;;;;;;;17.75;10.20;;;;;;;5.35;100.00;93692.72;5031514;28;20046;-79
2021/11/20 00:15:39;;;;;;;15.63;9.57;;;;;;;5.28;100.00;93680.81;5031198;28;20053;-78
2021/11/20 00:18:07;;;;;;;16.75;10.25;;;;;;;5.14;100.00;93672.13;5031085;28;20059;-78
2021/11/20 00:20:38;;;;;;;20.52;11.70;;;;;;;5.30;100.00;93676.34;5030804;28;20516;-79
2021/11/20 00:23:06;;;;;;;15.98;10.32;;;;;;;5.02;100.00;93676.75;5030759;28;20093;-79
2021/11/20 00:25:40;;;;;;;17.80;10.52;;;;;;;4.95;100.00;93656.22;5031110;28;20049;-79
2021/11/20 00:28:08;;;;;;;17.75;10.15;;;;;;;4.96;100.00;93670.56;5030882;28;20056;-78
2021/11/20 00:30:52;;;;;;;21.60;12.00;;;;;;;4.88;100.00;93662.94;5031154;28;20049;-78
2021/11/20 00:33:19;;;;;;;14.25;9.38;;;;;;;4.84;100.00;93659.94;5030780;28;20045;-79
2021/11/20 00:35:47;;;;;;;15.52;9.85;;;;;;;4.85;100.00;93673.47;5031038;28;20505;-79
2021/11/20 00:38:15;;;;;;;20.75;13.23;;;;;;;4.82;100.00;93677.91;5030950;28;20045;-79
2021/11/20 00:40:44;;;;;;;12.35;8.73;;;;;;;4.71;100.00;93665.53;5030491;28;20045;-79
2021/11/20 00:43:13;;;;;;;45.53;24.33;;;;;;;4.60;100.00;93655.69;5030778;28;20416;-78
2021/11/20 00:45:42;;;;;;;32.38;18.85;;;;;;;4.65;100.00;93644.06;5026481;28;20053;-79
2021/11/20 00:48:10;;;;;;;15.75;11.05;;;;;;;4.63;100.00;93650.28;5029036;28;20075;-79
2021/11/20 00:50:40;;;;;;;15.05;9.43;;;;;;;4.48;100.00;93650.94;5029368;28;20067;-78
2021/11/20 00:53:08;;;;;;;16.17;10.75;;;;;;;4.68;100.00;93671.72;5030390;28;20107;-79
2021/11/20 00:55:36;;;;;;;19.85;12.45;;;;;;;4.67;100.00;93672.69;5030260;28;20610;-78
2021/11/20 00:58:03;;;;;;;14.80;10.35;;;;;;;4.76;100.00;93670.94;5030502;28;20045;-78
2021/11/20 01:00:34;;;;;;;14.20;10.20;;;;;;;4.61;100.00;93655.53;5030616;28;20053;-78
2021/11/20 01:03:04;;;;;;;25.05;13.82;;;;;;;4.69;100.00;93670.00;5030052;28;20064;-78
2021/11/20 01:05:31;;;;;;;15.52;10.63;;;;;;;4.82;100.00;93674.59;5030000;28;20049;-78
2021/11/20 01:07:58;;;;;;;15.05;9.98;;;;;;;4.69;100.00;93642.00;5029698;28;20055;-78
2021/11/20 01:10:29;;;;;;;14.82;9.82;;;;;;;4.74;100.00;93662.66;5030158;28;20447;-78
2021/11/20 01:12:56;;;;;;;14.07;10.25;;;;;;;4.88;100.00;93670.59;5029849;28;20069;-78
2021/11/20 01:15:26;;;;;;;16.23;10.98;;;;;;;4.90;100.00;93668.66;5030140;28;20053;-78
2021/11/20 01:17:53;;;;;;;12.45;9.15;;;;;;;4.86;100.00;93665.66;5030071;28;20052;-78
2021/11/20 01:20:22;;;;;;;16.80;10.13;;;;;;;4.92;100.00;93665.00;5029348;28;20049;-78
2021/11/20 01:22:49;;;;;;;14.20;9.48;;;;;;;4.97;100.00;93667.06;5029960;28;20053;-79
2021/11/20 01:25:17;;;;;;;12.80;9.25;;;;;;;5.05;100.00;93663.72;5029168;28;20076;-78
2021/11/20 01:27:44;;;;;;;15.32;10.05;;;;;;;5.17;100.00;93661.59;5029434;28;20045;-78
2021/11/20 01:30:12;;;;;;;14.30;10.05;;;;;;;5.28;100.00;93666.31;5026833;28;20378;-78
2021/11/20 01:32:39;;;;;;;16.10;10.82;;;;;;;5.16;100.00;93637.88;5029011;28;20068;-79
2021/11/20 01:35:07;;;;;;;16.63;10.35;;;;;;;5.34;100.00;93662.31;5029210;28;20099;-78
2021/11/20 01:37:37;;;;;;;13.63;9.98;;;;;;;5.37;100.00;93661.97;5027064;28;20151;-79
2021/11/20 01:40:06;;;;;;;15.52;10.30;;;;;;;5.19;100.00;93659.69;5029091;28;20045;-79
2021/11/20 01:42:33;;;;;;;14.75;9.43;;;;;;;5.18;100.00;93669.06;5026580;28;20046;-79
2021/11/20 01:45:02;;;;;;;15.52;10.48;;;;;;;5.33;100.00;93661.50;5029391;28;20053;-79
2021/11/20 01:47:32;;;;;;;16.05;10.20;;;;;;;5.40;100.00;93665.94;5028758;28;20534;-79
2021/11/20 01:50:05;;;;;;;22.50;13.35;;;;;;;5.44;100.00;93668.00;5029064;28;20045;-79
2021/11/20 01:52:44;;;;;;;15.43;11.02;;;;;;;5.41;100.00;93653.03;5026257;28;20045;-79
2021/11/20 01:55:17;;;;;;;26.85;17.88;;;;;;;5.22;100.00;93629.56;5028878;28;20045;-79
2021/11/20 01:57:51;;;;;;;30.83;20.88;;;;;;;5.58;100.00;93675.91;5028880;28;20042;-79
2021/11/20 02:00:23;;;;;;;16.73;11.95;;;;;;;5.61;100.00;93678.91;5027121;28;20064;-79
2021/11/20 02:03:03;;;;;;;16.48;10.68;;;;;;;5.40;100.00;93659.09;5028769;28;20041;-79
2021/11/20 02:05:36;;;;;;;15.98;10.63;;;;;;;5.61;100.00;93666.16;5029028;28;20045;-79
2021/11/20 02:08:09;;;;;;;15.20;10.70;;;;;;;5.67;100.00;93646.06;5028861;28;20049;-79
2021/11/20 02:10:41;;;;;;;12.82;8.68;;;;;;;5.89;100.00;93675.09;5027002;28;20440;-79
2021/11/20 02:13:12;;;;;;;15.10;9.93;;;;;;;5.93;100.00;93670.47;5028875;28;20460;-79
2021/11/20 02:15:52;;;;;;;13.98;9.68;;;;;;;5.97;100.00;93654.66;5028549;28;20042;-79
2021/11/20 02:18:22;;;;;;;14.05;9.43;;;;;;;6.09;100.00;93672.94;5027064;28;20096;-79
2021/11/20 02:20:55;;;;;;;13.90;8.88;;;;;;;6.13;100.00;93671.63;5028951;28;20107;-79
2021/11/20 02:23:21;;;;;;;13.45;8.55;;;;;;;6.19;100.00;93671.88;5028679;28;20049;-79
2021/11/20 02:25:49;;;;;;;13.00;8.38;;;;;;;6.22;100.00;93676.66;5029062;28;20046;-79
2021/11/20 02:28:17;;;;;;;12.65;8.20;;;;;;;6.05;100.00;93669.13;5029466;28;20057;-79
2021/11/20 02:30:46;;;;;;;12.50;8.25;;;;;;;6.17;100.00;93668.72;5029212;28;21035;-79
2021/11/20 02:33:16;;;;;;;13.52;8.35;;;;;;;6.17;100.00;93659.34;5029039;28;20049;-79
2021/11/20 02:35:46;;;;;;;11.63;8.80;;;;;;;6.29;100.00;93662.25;5029050;28;20049;-79
2021/11/20 02:38:17;;;;;;;13.45;8.82;;;;;;;6.32;100.00;93664.47;5029186;28;20229;-79
2021/11/20 02:40:45;;;;;;;16.17;8.98;;;;;;;6.39;100.00;93664.59;5029399;28;20100;-79
2021/11/20 02:43:13;;;;;;;16.58;9.50;;;;;;;6.38;100.00;93653.56;5029212;28;20099;-79
2021/11/20 02:45:41;;;;;;;14.25;10.40;;;;;;;6.11;100.00;93654.91;5030678;28;20054;-79
2021/11/20 02:48:10;;;;;;;13.57;9.55;;;;;;;5.94;100.00;93659.28;5033111;28;20421;-79
2021/11/20 02:50:40;;;;;;;12.98;8.32;;;;;;;5.54;100.00;93644.88;5033042;28;20053;-79
2021/11/20 02:53:07;;;;;;;14.95;9.50;;;;;;;5.29;100.00;93655.19;5033158;28;20056;-79
2021/11/20 02:55:35;;;;;;;13.48;8.82;;;;;;;4.91;100.00;93642.25;5032830;28;20045;-79
2021/11/20 02:58:02;;;;;;;11.80;8.23;;;;;;;4.73;100.00;93620.38;5033056;28;20054;-79
2021/11/20 03:00:29;;;;;;;13.95;9.73;;;;;;;4.89;100.00;93623.81;5032890;28;20045;-79
2021/11/20 03:02:56;;;;;;;14.00;9.80;;;;;;;5.19;100.00;93631.66;5032455;28;20414;-79
2021/11/20 03:05:25;;;;;;;16.67;10.32;;;;;;;5.35;100.00;93633.34;5032540;28;20061;-79
2021/11/20 03:07:51;;;;;;;15.32;10.23;;;;;;;5.33;100.00;93623.31;5032492;28;20049;-79
2021/11/20 03:10:19;;;;;;;14.48;10.65;;;;;;;5.35;100.00;93612.97;5032177;28;20049;-79
2021/11/20 03:12:46;;;;;;;14.10;9.65;;;;;;;5.64;100.00;93638.78;5032237;28;20049;-79
2021/11/20 03:15:13;;;;;;;11.98;9.52;;;;;;;5.59;100.00;93614.56;5032440;28;20060;-79
2021/11/20 03:17:40;;;;;;;14.95;9.93;;;;;;;5.87;100.00;93637.03;5032179;28;20061;-79
2021/11/20 03:20:11;;;;;;;15.50;10.80;;;;;;;6.01;100.00;93642.34;5032034;28;20056;-79
2021/11/20 03:22:42;;;;;;;13.93;10.40;;;;;;;6.06;100.00;93629.91;5032195;28;20053;-79
2021/11/20 03:25:09;;;;;;;16.38;9.80;;;;;;;6.14;100.00;93632.41;5010120;28;20057;-79
2021/11/20 03:27:36;;;;;;;15.93;11.23;;;;;;;6.21;100.00;93635.03;5031972;28;20114;-79
2021/11/20 03:30:05;;;;;;;16.08;11.15;;;;;;;6.16;100.00;93629.69;5032144;28;20095;-79
2021/11/20 03:32:32;;;;;;;13.57;9.82;;;;;;;5.89;100.00;93617.25;5032142;28;20049;-79
2021/11/20 03:34:59;;;;;;;13.13;9.07;;;;;;;5.88;100.00;93627.63;5031643;28;20053;-79
2021/11/20 03:37:26;;;;;;;13.07;9.45;;;;;;;5.59;100.00;93608.69;5031807;28;20049;-79
2021/11/20 03:39:55;;;;;;;13.40;8.63;;;;;;;5.59;100.00;93614.56;5032021;28;20068;-80
2021/11/20 03:42:22;;;;;;;14.82;9.68;;;;;;;5.36;100.00;93617.09;5032122;28;20046;-80
2021/11/20 03:44:49;;;;;;;14.23;10.85;;;;;;;5.41;100.00;93607.19;5032175;28;20053;-79
2021/11/20 03:47:16;;;;;;;14.38;10.68;;;;;;;5.65;100.00;93625.84;5031631;28;20053;-80
2021/11/20 03:49:43;;;;;;;13.30;9.20;;;;;;;5.78;100.00;93634.72;5031815;28;20045;-80
2021/11/20 03:52:11;;;;;;;12.68;9.15;;;;;;;5.81;100.00;93637.72;5032293;28;20521;-80
2021/11/20 03:54:38;;;;;;;12.48;9.95;;;;;;;5.79;100.00;93641.38;5031683;28;20049;-80
2021/11/20 03:57:07;;;;;;;14.32;9.48;;;;;;;5.80;100.00;93645.53;5031116;28;20045;-80
2021/11/20 03:59:34;;;;;;;12.77;9.40;;;;;;;5.81;100.00;93644.56;5031696;28;20057;-80
2021/11/20 04:02:02;;;;;;;22.23;11.93;;;;;;;5.51;100.00;93647.75;5031285;28;20428;-79
2021/11/20 04:04:29;;;;;;;15.30;10.73;;;;;;;5.48;100.00;93645.53;5031323;28;20049;-78
2021/11/20 04:06:56;;;;;;;15.68;11.30;;;;;;;5.50;100.00;93648.69;5031105;28;20064;-79
2021/11/20 04:09:23;;;;;;;16.52;11.25;;;;;;;5.43;100.00;93650.34;5031121;28;20049;-80
2021/11/20 04:11:51;;;;;;;14.85;11.23;;;;;;;5.50;100.00;93648.69;5031401;28;20452;-79
2021/11/20 04:14:21;;;;;;;14.02;10.40;;;;;;;5.60;100.00;93636.53;5031003;28;20050;-79
2021/11/20 04:16:49;;;;;;;15.80;11.82;;;;;;;5.70;100.00;93640.66;5030965;28;20048;-79
2021/11/20 04:19:17;;;;;;;18.63;13.32;;;;;;;5.78;100.00;93647.44;5030982;28;20053;-78
2021/11/20 04:21:44;;;;;;;11.15;8.15;;;;;;;5.82;100.00;93641.03;5030977;28;20041;-78
2021/11/20 04:24:11;;;;;;;13.88;10.38;;;;;;;5.81;100.00;93632.59;5031171;28;20455;-80
2021/11/20 04:26:39;;;;;;;15.60;12.50;;;;;;;5.93;100.00;93633.00;5030847;28;20053;-79
2021/11/20 04:29:06;;;;;;;17.52;12.05;;;;;;;6.08;100.00;93655.25;5031083;28;20053;-80
2021/11/20 04:31:34;;;;;;;15.38;11.02;;;;;;;6.04;100.00;93633.59;5031158;28;20456;-79
2021/11/20 04:34:01;;;;;;;12.15;9.63;;;;;;;6.17;100.00;93646.56;5031162;28;20049;-79
2021/11/20 04:36:28;;;;;;;13.65;10.23;;;;;;;6.13;100.00;93648.69;5031011;28;20046;-79
2021/11/20 04:38:56;;;;;;;12.68;9.18;;;;;;;6.13;100.00;93646.13;5028745;28;20111;-79
2021/11/20 04:41:23;;;;;;;10.80;7.97;;;;;;;6.13;100.00;93648.69;5031197;28;20050;-79
2021/11/20 04:43:51;;;;;;;11.90;8.60;;;;;;;6.22;100.00;93657.06;5031312;28;20420;-79
2021/11/20 04:46:21;;;;;;;11.57;8.63;;;;;;;6.24;100.00;93659.41;5030250;28;20057;-79
2021/11/20 04:48:50;;;;;;;15.75;11.40;;;;;;;6.14;100.00;93657.91;5030788;28;21119;-80
2021/11/20 04:51:17;;;;;;;18.88;12.48;;;;;;;5.97;100.00;93630.91;5030096;28;20059;-80
2021/11/20 04:53:46;;;;;;;17.90;11.75;;;;;;;5.93;100.00;93665.38;5030751;28;20041;-80
2021/11/20 04:56:16;;;;;;;16.42;10.98;;;;;;;5.99;100.00;93657.03;5030447;28;20056;-81
2021/11/20 04:58:43;;;;;;;15.18;10.70;;;;;;;6.04;100.00;93665.00;5029796;28;20554;-81
2021/11/20 05:01:12;;;;;;;13.98;10.75;;;;;;;6.07;100.00;93649.34;5019481;28;20067;-80
2021/11/20 05:03:40;;;;;;;13.77;9.85;;;;;;;6.03;100.00;93625.16;5030381;28;20061;-80
2021/11/20 05:06:09;;;;;;;13.65;10.43;;;;;;;6.12;100.00;93633.53;5030395;28;20432;-80
2021/11/20 05:08:36;;;;;;;12.73;9.70;;;;;;;6.21;100.00;93645.25;5029543;28;20056;-80
2021/11/20 05:11:04;;;;;;;11.27;9.18;;;;;;;6.12;100.00;93624.13;5030003;28;20059;-79
2021/11/20 05:13:31;;;;;;;13.10;9.55;;;;;;;6.28;100.00;93645.38;5030300;28;20046;-79
2021/11/20 05:15:58;;;;;;;14.18;10.02;;;;;;;6.19;100.00;93623.44;5029730;28;20136;-80
2021/11/20 05:18:26;;;;;;;11.55;7.78;;;;;;;6.35;100.00;93643.69;5029559;28;20057;-80
2021/11/20 05:20:54;;;;;;;14.30;9.30;;;;;;;6.18;100.00;93611.63;5029238;28;20511;-80
2021/11/20 05:23:23;;;;;;;12.27;9.93;;;;;;;6.21;100.00;93609.53;5024711;28;20042;-80
2021/11/20 05:25:52;;;;;;;13.90;10.55;;;;;;;6.45;100.00;93640.94;5024989;28;20055;-80
2021/11/20 05:28:20;;;;;;;19.10;12.35;;;;;;;6.37;100.00;93623.13;5025249;28;20516;-80
2021/11/20 05:30:49;;;;;;;16.52;11.20;;;;;;;6.47;100.00;93636.44;5025701;28;20055;-80
2021/11/20 05:33:20;;;;;;;16.13;11.75;;;;;;;6.34;100.00;93614.06;5025554;28;20099;-80
2021/11/20 05:35:47;;;;;;;21.33;11.98;;;;;;;6.52;100.00;93648.66;5025781;28;20071;-80
2021/11/20 05:38:14;;;;;;;15.73;9.82;;;;;;;6.24;100.00;93649.22;5025756;28;20041;-80
2021/11/20 05:40:43;;;;;;;21.25;13.15;;;;;;;6.02;100.00;93641.41;5025434;28;20058;-80
2021/11/20 05:43:14;;;;;;;25.25;18.55;;;;;;;6.01;100.00;93648.25;5025769;28;20420;-79
2021/11/20 05:45:44;;;;;;;13.02;9.52;;;;;;;5.65;100.00;93641.13;5025768;28;20079;-79
2021/11/20 05:48:11;;;;;;;45.92;24.67;;;;;;;5.62;100.00;93621.09;5025450;28;20057;-80
2021/11/20 05:50:39;;;;;;;13.82;10.07;;;;;;;5.60;100.00;93646.75;5025151;28;20037;-80
2021/11/20 05:53:10;;;;;;;16.38;12.50;;;;;;;5.56;100.00;93648.03;5024830;28;20490;-80
2021/11/20 05:55:38;;;;;;;12.98;9.75;;;;;;;5.54;100.00;93652.50;5025541;28;20428;-80
2021/11/20 05:58:06;;;;;;;11.65;7.82;;;;;;;5.52;100.00;93651.09;5025293;28;20128;-80
2021/11/20 06:00:36;;;;;;;11.95;9.48;;;;;;;5.57;100.00;93656.47;5025143;28;20413;-80
2021/11/20 06:03:03;;;;;;;14.25;10.13;;;;;;;5.65;100.00;93666.63;5025338;28;20050;-80
2021/11/20 06:05:32;;;;;;;13.98;9.68;;;;;;;5.60;100.00;93672.22;5025523;28;20405;-79
2021/11/20 06:07:59;;;;;;;13.27;9.55;;;;;;;5.62;100.00;93666.97;5025105;28;20041;-80
2021/11/20 06:10:26;;;;;;;14.95;9.85;;;;;;;5.57;100.00;93662.38;5025018;28;20054;-80
2021/11/20 06:12:53;;;;;;;12.32;9.07;;;;;;;5.68;100.00;93668.03;5025682;28;20492;-80
2021/11/20 06:15:22;;;;;;;11.23;8.15;;;;;;;5.62;100.00;93667.75;5024758;28;20054;-80
2021/11/20 06:17:49;;;;;;;9.82;7.60;;;;;;;5.59;100.00;93652.81;5025058;28;20045;-79
2021/11/20 06:20:16;;;;;;;14.15;9.80;;;;;;;5.68;100.00;93657.84;5028263;28;20556;-79
2021/11/20 06:22:43;;;;;;;13.55;9.55;;;;;;;5.77;100.00;93646.66;5029055;28;20050;-80
2021/11/20 06:25:12;;;;;;;9.52;8.18;;;;;;;5.64;100.00;93638.78;5029144;28;20060;-80
2021/11/20 06:27:39;;;;;;;11.30;8.50;;;;;;;5.64;100.00;93657.38;5029129;28;20648;-79
2021/11/20 06:30:09;;;;;;;12.40;9.48;;;;;;;5.72;100.00;93662.47;5028911;28;20052;-80
2021/11/20 06:32:38;;;;;;;13.50;9.40;;;;;;;5.58;100.00;93628.28;5029095;28;20049;-80
2021/11/20 06:35:10;;;;;;;12.38;8.38;;;;;;;5.85;100.00;93661.09;5029406;28;20050;-80
2021/11/20 06:37:39;;;;;;;13.02;9.80;;;;;;;5.83;100.00;93663.81;5028896;28;20045;-80
2021/11/20 06:40:09;;;;;;;15.48;9.88;;;;;;;5.88;100.00;93665.88;5029077;28;20099;-81
2021/11/20 06:42:36;;;;;;;11.75;9.18;;;;;;;5.85;100.00;93668.75;5029233;28;20100;-81
2021/11/20 06:45:05;;;;;;;12.25;8.48;;;;;;;5.65;100.00;93650.56;5028919;28;20049;-81
2021/11/20 06:47:32;;;;;;;12.32;9.68;;;;;;;5.78;100.00;93672.94;5028835;28;20054;-80
2021/11/20 06:50:00;;;;;;;14.05;9.52;;;;;;;5.82;100.00;93674.19;5028207;28;20408;-80
2021/11/20 06:52:27;;;;;;;12.35;8.07;;;;;;;5.85;100.00;93661.91;5028787;28;21127;-80
2021/11/20 06:54:53;;;;;;;13.70;8.75;;;;;;;5.98;100.00;93668.97;5028552;28;20064;-80
2021/11/20 06:57:47;;;;;;;12.05;8.75;;;;;;;6.12;100.00;93675.13;5028717;28;20042;-79
2021/11/20 07:00:28;;;;;;;25.08;14.27;;;;;;;6.27;100.00;93670.09;5028894;28;20057;-80
2021/11/20 07:02:58;;;;;;;14.02;9.57;;;;;;;6.37;100.00;93672.41;5028238;28;20497;-80
2021/11/20 07:05:28;;;;;;;17.20;12.27;;;;;;;6.35;100.00;93669.22;5028224;28;20053;-80
2021/11/20 07:07:55;;;;;;;18.30;11.55;;;;;;;6.34;100.00;93671.97;5028491;28;20045;-78
2021/11/20 07:10:23;;;;;;;10.13;7.93;;;;;;;6.20;100.00;93676.81;5028098;28;21011;-79
2021/11/20 07:12:51;;;;;;;9.98;7.13;;;;;;;6.11;100.00;93675.31;5028044;28;20331;-79
2021/11/20 07:15:19;;;;;;;12.02;8.25;;;;;;;6.24;100.00;93672.97;5028247;28;20049;-80
2021/11/20 07:17:45;;;;;;;18.85;11.63;;;;;;;6.20;100.00;93650.53;5028615;28;20598;-80
2021/11/20 07:20:13;;;;;;;8.68;6.65;;;;;;;6.30;100.00;93678.38;5028377;28;20053;-80
2021/11/20 07:22:41;;;;;;;15.70;9.90;;;;;;;6.34;100.00;93667.63;5027977;28;20460;-79
2021/11/20 07:25:09;;;;;;;17.25;9.30;;;;;;;6.51;100.00;93681.06;5028224;28;20068;-79
2021/11/20 07:27:36;;;;;;;19.70;12.00;;;;;;;6.62;100.00;93686.72;5027715;28;20045;-79
2021/11/20 07:30:05;;;;;;;12.18;7.95;;;;;;;6.65;100.00;93671.84;5027536;28;20068;-80
2021/11/20 07:32:32;;;;;;;12.85;9.50;;;;;;;6.71;100.00;93683.13;5027487;28;20053;-80
2021/11/20 07:34:59;;;;;;;13.68;9.85;;;;;;;6.75;100.00;93678.47;5027347;28;20042;-80
2021/11/20 07:37:26;;;;;;;18.88;10.80;;;;;;;6.76;100.00;93682.63;5004616;28;20061;-80
2021/11/20 07:39:55;;;;;;;11.15;6.53;;;;;;;6.47;100.00;93679.81;5028069;28;20049;-80
2021/11/20 07:42:21;;;;;;;13.52;9.27;;;;;;;6.57;100.00;93682.13;5027266;28;20055;-79
2021/11/20 07:44:49;;;;;;;15.07;9.38;;;;;;;6.62;100.00;93667.09;5027663;28;20049;-79
2021/11/20 07:47:17;;;;;;;23.23;12.32;;;;;;;6.58;100.00;93676.06;5027215;28;20050;-80
2021/11/20 07:49:47;;;;;;;21.25;11.30;;;;;;;6.62;100.00;93674.75;5027161;28;20497;-80
2021/11/20 07:52:14;;;;;;;26.85;15.00;;;;;;;6.62;100.00;93681.63;5023289;28;20374;-80
2021/11/20 07:54:41;;;;;;;31.77;16.73;;;;;;;6.58;100.00;93667.63;5025727;28;20088;-79
2021/11/20 07:57:10;;;;;;;48.42;22.92;;;;;;;6.79;100.00;93689.91;5026668;28;20054;-79
2021/11/20 07:59:39;;;;;;;21.33;12.63;;;;;;;6.77;100.00;93692.63;5027224;28;20045;-80
2021/11/20 08:02:05;;;;;;;21.13;13.63;;;;;;;6.80;100.00;93689.75;5027509;28;20053;-80
2021/11/20 08:04:35;;;;;;;13.73;9.45;;;;;;;6.84;100.00;93681.75;5027382;28;20424;-80
2021/11/20 08:07:03;;;;;;;19.25;11.32;;;;;;;6.97;100.00;93696.44;5027315;28;20291;-80
2021/11/20 08:09:29;;;;;;;17.77;11.63;;;;;;;7.04;100.00;93694.78;5026697;28;20056;-80
2021/11/20 08:11:56;;;;;;;25.65;12.43;;;;;;;6.95;100.00;93658.31;5027050;28;20057;-80
2021/11/20 08:14:24;;;;;;;12.32;9.15;;;;;;;7.18;100.00;93699.09;5026930;28;20041;-80
2021/11/20 08:16:52;;;;;;;14.52;9.00;;;;;;;7.03;100.00;93691.44;5026775;28;20053;-80
2021/11/20 08:19:19;;;;;;;17.08;10.60;;;;;;;7.24;100.00;93689.16;5026230;28;20496;-80
2021/11/20 08:21:46;;;;;;;18.38;11.40;;;;;;;7.34;100.00;93690.47;5026750;28;20404;-80
2021/11/20 08:24:14;;;;;;;12.20;9.02;;;;;;;7.44;100.00;93689.41;5027607;28;20144;-80
2021/11/20 08:26:43;;;;;;;14.20;9.70;;;;;;;7.41;100.00;93667.53;5027095;28;20212;-80
2021/11/20 08:29:12;;;;;;;14.38;9.07;;;;;;;7.61;100.00;93677.22;5026570;28;20054;-80
2021/11/20 08:31:44;;;;;;;10.45;7.03;;;;;;;7.42;100.00;93658.91;5026549;28;20523;-80
2021/11/20 08:34:11;;;;;;;9.57;7.25;;;;;;;7.56;100.00;93654.75;5026624;28;20504;-80
2021/11/20 08:36:39;;;;;;;11.00;7.88;;;;;;;7.72;100.00;93658.84;5026313;28;20049;-79
2021/11/20 08:39:07;;;;;;;12.43;8.05;;;;;;;7.77;100.00;93665.97;5026436;28;20507;-79
2021/11/20 08:41:35;;;;;;;15.93;9.95;;;;;;;7.89;100.00;93668.84;5026239;28;20060;-79
2021/11/20 08:44:02;;;;;;;15.40;10.13;;;;;;;7.82;100.00;93645.00;5025241;28;20057;-79
2021/11/20 08:46:29;;;;;;;12.75;9.10;;;;;;;8.06;100.00;93655.84;5026250;28;20049;-79
2021/11/20 08:48:58;;;;;;;11.30;7.72;;;;;;;8.27;100.00;93673.75;5026063;28;20092;-79
2021/11/20 08:51:28;;;;;;;13.27;9.57;;;;;;;8.26;99.57;93673.91;5026415;28;20439;-79
2021/11/20 08:53:56;;;;;;;19.48;12.50;;;;;;;8.31;99.14;93674.16;5026718;28;20046;-79
2021/11/20 08:56:25;;;;;;;16.67;9.93;;;;;;;8.33;98.12;93679.13;5026226;28;20416;-79
2021/11/20 08:58:53;;;;;;;14.82;9.40;;;;;;;8.06;99.21;93676.31;5026081;28;20726;-79
2021/11/20 09:01:24;;;;;;;9.20;6.88;;;;;;;7.72;100.00;93673.38;5025935;28;20045;-79
2021/11/20 09:03:55;;;;;;;15.25;9.02;;;;;;;7.79;100.00;93676.03;5026197;28;20050;-79
2021/11/20 09:06:28;;;;;;;9.02;6.35;;;;;;;7.46;100.00;93654.25;5025933;28;20056;-79
2021/11/20 09:08:58;;;;;;;10.23;5.55;;;;;;;7.61;100.00;93667.00;5025886;28;20433;-79
2021/11/20 09:11:29;;;;;;;12.45;6.75;;;;;;;7.37;100.00;93668.09;5026080;28;20448;-79
2021/11/20 09:14:09;;;;;;;15.80;8.20;;;;;;;7.48;100.00;93657.41;5026326;28;20056;-79
2021/11/20 09:16:38;;;;;;;15.02;8.77;;;;;;;7.41;100.00;93664.22;5025662;28;20052;-79
2021/11/20 09:19:06;;;;;;;9.75;6.93;;;;;;;7.59;100.00;93667.16;5025864;28;20135;-79
2021/11/20 09:21:35;;;;;;;8.43;5.72;;;;;;;7.52;100.00;93643.28;5025746;28;20080;-79
2021/11/20 09:24:02;;;;;;;9.77;6.32;;;;;;;7.62;100.00;93660.91;5025588;28;20052;-79
2021/11/20 09:26:31;;;;;;;8.77;6.20;;;;;;;7.80;100.00;93659.69;5025738;28;20057;-79
2021/11/20 09:28:59;;;;;;;12.15;6.85;;;;;;;7.81;100.00;93661.28;5025738;28;20053;-79
2021/11/20 09:31:29;;;;;;;16.02;10.73;;;;;;;7.77;100.00;93654.97;5025682;28;20061;-79
2021/11/20 09:33:56;;;;;;;9.52;7.07;;;;;;;7.85;100.00;93653.09;5025543;28;20508;-79
2021/11/20 09:36:24;;;;;;;9.65;5.97;;;;;;;7.80;100.00;93636.69;5025463;28;20080;-79
2021/11/20 09:38:53;;;;;;;8.23;5.38;;;;;;;7.97;100.00;93652.59;5025716;28;20064;-79
2021/11/20 09:41:22;;;;;;;7.40;5.40;;;;;;;7.98;100.00;93643.94;5025650;28;20053;-79
2021/11/20 09:43:52;;;;;;;13.93;9.15;;;;;;;7.95;100.00;93645.09;5025722;28;20061;-79
2021/11/20 09:46:23;;;;;;;12.40;7.63;;;;;;;7.85;100.00;93642.06;5025340;28;20053;-79
2021/11/20 09:48:53;;;;;;;9.95;5.97;;;;;;;7.96;100.00;93639.00;5025454;28;20060;-79
2021/11/20 09:51:24;;;;;;;8.82;4.40;;;;;;;7.77;100.00;93614.06;5025302;28;20051;-79
2021/11/20 09:53:54;;;;;;;7.78;5.13;;;;;;;7.75;100.00;93644.91;5025140;28;20582;-79
2021/11/20 09:56:23;;;;;;;10.98;5.97;;;;;;;7.92;100.00;93637.00;5025233;28;20401;-79
2021/11/20 09:58:53;;;;;;;9.35;5.53;;;;;;;7.77;100.00;93611.50;5025334;28;20052;-79
2021/11/20 10:01:37;;;;;;;7.55;5.10;;;;;;;8.11;100.00;93622.81;5025337;28;20037;-79
2021/11/20 10:04:27;;;;;;;10.75;6.47;;;;;;;8.21;100.00;93618.19;5025287;28;20061;-79
2021/11/20 10:07:10;;;;;;;14.02;7.35;;;;;;;8.35;100.00;93624.19;5020809;28;20053;-79
2021/11/20 10:09:45;;;;;;;9.32;5.43;;;;;;;8.14;100.00;93630.91;5024815;28;20104;-79
2021/11/20 10:12:19;;;;;;;8.75;6.13;;;;;;;8.18;100.00;93623.66;5025252;28;20534;-79
2021/11/20 10:14:49;;;;;;;8.82;5.53;;;;;;;8.14;100.00;93623.22;5025304;28;20049;-79
2021/11/20 10:17:20;;;;;;;9.55;4.93;;;;;;;8.20;100.00;93615.81;5025158;28;20495;-79
2021/11/20 10:19:50;;;;;;;7.32;4.78;;;;;;;8.28;100.00;93631.00;5025268;28;20072;-79
2021/11/20 10:22:25;;;;;;;7.75;5.78;;;;;;;8.29;100.00;93617.25;5024734;28;20053;-79
2021/11/20 10:25:17;;;;;;;11.82;5.85;;;;;;;8.28;100.00;93623.34;5024869;28;20050;-80
2021/11/20 10:28:01;;;;;;;7.60;5.18;;;;;;;8.26;100.00;93620.97;5024934;28;20049;-79
2021/11/20 10:30:34;;;;;;;6.50;4.97;;;;;;;8.24;100.00;93605.00;5025106;28;20049;-79
2021/11/20 10:33:06;;;;;;;7.53;5.43;;;;;;;8.13;100.00;93613.97;5024658;28;20564;-79
2021/11/20 10:35:36;;;;;;;8.73;6.50;;;;;;;8.11;100.00;93618.47;5024539;28;20504;-79
2021/11/20 10:38:14;;;;;;;12.60;9.07;;;;;;;8.06;100.00;93623.34;5025116;28;20060;-79
2021/11/20 10:40:47;;;;;;;10.93;7.40;;;;;;;7.95;100.00;93626.41;5024676;28;20045;-79
2021/11/20 10:43:21;;;;;;;8.40;5.40;;;;;;;7.88;100.00;93628.91;5024785;28;20065;-79
2021/11/20 10:45:53;;;;;;;10.45;6.13;;;;;;;8.04;100.00;93609.19;5024235;28;20520;-78
2021/11/20 10:48:34;;;;;;;11.77;6.78;;;;;;;8.02;100.00;93612.69;5024640;28;20045;-78
2021/11/20 10:51:33;;;;;;;16.50;7.22;;;;;;;8.09;100.00;93607.63;5024654;28;20559;-78
2021/11/20 10:54:25;;;;;;;8.07;5.85;;;;;;;8.11;100.00;93608.25;5024866;28;20103;-78
2021/11/20 10:57:05;;;;;;;8.70;6.15;;;;;;;8.09;100.00;93606.84;5025149;28;20058;-79
2021/11/20 10:59:59;;;;;;;12.45;7.90;;;;;;;8.20;100.00;93595.31;5024604;28;20049;-79
2021/11/20 11:02:49;;;;;;;13.68;8.75;;;;;;;8.36;100.00;93601.94;5011446;28;20046;-79
2021/11/20 11:05:41;;;;;;;10.93;8.02;;;;;;;8.38;100.00;93600.00;5024293;28;20049;-79
2021/11/20 11:08:22;;;;;;;10.35;7.80;;;;;;;8.36;100.00;93601.94;5028009;28;20050;-78
2021/11/20 11:10:52;;;;;;;11.98;8.73;;;;;;;8.39;100.00;93593.91;5027723;28;20064;-79
2021/11/20 11:13:27;;;;;;;10.18;7.63;;;;;;;8.41;100.00;93585.06;5027835;28;20060;-79
2021/11/20 11:16:10;;;;;;;19.05;7.90;;;;;;;8.25;100.00;93580.22;5028416;28;20452;-79
2021/11/20 11:18:41;;;;;;;20.10;8.95;;;;;;;8.41;100.00;93592.72;5027749;28;20045;-79
2021/11/20 11:21:40;;;;;;;9.40;7.28;;;;;;;8.60;100.00;93594.84;5027803;28;20049;-80
2021/11/20 11:24:34;;;;;;;16.90;10.10;;;;;;;8.81;100.00;93588.88;5028003;28;20046;-80
2021/11/20 11:27:07;;;;;;;10.95;7.82;;;;;;;8.14;100.00;93561.03;5028261;28;20065;-82
2021/11/20 11:29:50;;;;;;;51.70;27.13;;;;;;;8.39;100.00;93587.00;5027681;28;20071;-82
2021/11/20 11:32:18;;;;;;;10.00;7.50;;;;;;;7.94;100.00;93587.25;5027766;28;21517;-81
2021/11/20 11:34:50;;;;;;;9.77;7.43;;;;;;;7.77;100.00;93565.47;5027333;28;20037;-80
2021/11/20 11:37:24;;;;;;;10.65;7.30;;;;;;;7.81;100.00;93584.56;5027136;28;20441;-81